createdAt,value
2022-08-25T00:00:14.082Z,2.75
2022-08-25T00:02:41.763Z,2.70
2022-08-25T00:05:22.405Z,2.63
2022-08-25T00:07:49.451Z,2.90
2022-08-25T00:10:16.450Z,2.20
2022-08-25T00:12:43.419Z,2.57
2022-08-25T00:15:11.181Z,2.90
2022-08-25T00:17:38.212Z,2.13
2022-08-25T00:20:09.460Z,2.23
2022-08-25T00:22:36.612Z,2.92
2022-08-25T00:25:04.322Z,3.17
2022-08-25T00:27:31.326Z,2.33
2022-08-25T00:29:58.480Z,2.97
2022-08-25T00:32:25.647Z,2.88
2022-08-25T00:34:53.296Z,2.03
2022-08-25T00:37:20.338Z,2.55
2022-08-25T00:39:47.399Z,2.63
2022-08-25T00:42:16.243Z,3.17
2022-08-25T00:44:44.036Z,2.05
2022-08-25T00:47:11.529Z,3.15
2022-08-25T00:49:44.824Z,3.47
2022-08-25T00:52:22.044Z,3.67
2022-08-25T00:55:15.653Z,2.88
2022-08-25T00:57:57.807Z,2.95
2022-08-25T01:00:42.154Z,2.30
2022-08-25T01:03:10.020Z,2.67
2022-08-25T01:05:38.135Z,2.45
2022-08-25T01:08:07.032Z,2.97
2022-08-25T01:10:37.144Z,3.10
2022-08-25T01:13:19.454Z,3.77
2022-08-25T01:15:49.624Z,3.50
2022-08-25T01:18:16.931Z,3.50
2022-08-25T01:20:43.982Z,2.60
2022-08-25T01:23:11.016Z,4.05
2022-08-25T01:26:09.888Z,3.35
2022-08-25T01:28:38.208Z,2.63
2022-08-25T01:31:24.060Z,2.92
2022-08-25T01:33:51.615Z,3.45
2022-08-25T01:36:21.290Z,3.83
2022-08-25T01:38:48.880Z,2.10
2022-08-25T01:41:51.320Z,2.97
2022-08-25T01:44:19.270Z,3.55
2022-08-25T01:46:46.445Z,2.95
2022-08-25T01:49:13.411Z,2.67
2022-08-25T01:52:06.349Z,3.33
2022-08-25T01:54:33.560Z,3.27
2022-08-25T01:57:00.637Z,2.78
2022-08-25T01:59:27.880Z,2.90
2022-08-25T02:01:59.979Z,3.28
2022-08-25T02:04:32.362Z,2.83
2022-08-25T02:07:01.966Z,3.17
2022-08-25T02:09:29.505Z,3.17
2022-08-25T02:11:56.920Z,2.97
2022-08-25T02:14:24.322Z,3.10
2022-08-25T02:16:53.752Z,3.20
2022-08-25T02:19:24.395Z,2.70
2022-08-25T02:21:51.949Z,2.90
2022-08-25T02:24:19.112Z,3.20
2022-08-25T02:26:46.156Z,3.90
2022-08-25T02:29:13.892Z,4.18
2022-08-25T02:31:41.095Z,3.77
2022-08-25T02:34:10.110Z,4.53
2022-08-25T02:36:39.279Z,3.80
2022-08-25T02:39:09.232Z,3.05
2022-08-25T02:41:36.937Z,3.25
2022-08-25T02:44:05.206Z,3.97
2022-08-25T02:46:33.034Z,3.43
2022-08-25T02:49:00.724Z,2.85
2022-08-25T02:51:32.090Z,3.95
2022-08-25T02:54:02.187Z,3.83
2022-08-25T02:56:31.431Z,3.17
2022-08-25T02:59:00.287Z,4.57
2022-08-25T03:01:29.248Z,3.85
2022-08-25T03:03:57.297Z,3.88
2022-08-25T03:06:25.306Z,3.00
2022-08-25T03:08:53.345Z,3.58
2022-08-25T03:11:21.764Z,3.97
2022-08-25T03:13:51.091Z,3.63
2022-08-25T03:16:18.775Z,3.65
2022-08-25T03:18:46.245Z,3.85
2022-08-25T03:21:13.460Z,3.55
2022-08-25T03:23:44.316Z,3.60
2022-08-25T03:26:30.245Z,3.83
2022-08-25T03:28:57.904Z,3.83
2022-08-25T03:31:27.771Z,3.78
2022-08-25T03:33:55.384Z,4.53
2022-08-25T03:36:22.631Z,3.60
2022-08-25T03:38:49.907Z,5.13
2022-08-25T03:41:24.327Z,4.82
2022-08-25T03:43:56.403Z,4.88
2022-08-25T03:46:40.657Z,4.45
2022-08-25T03:49:12.029Z,4.28
2022-08-25T03:51:48.720Z,4.67
2022-08-25T03:54:20.084Z,4.30
2022-08-25T03:56:47.441Z,3.58
2022-08-25T03:59:14.558Z,4.32
2022-08-25T04:01:45.557Z,3.72
2022-08-25T04:04:14.964Z,8.05
2022-08-25T04:06:43.976Z,5.80
2022-08-25T04:09:11.792Z,4.80
2022-08-25T04:11:39.656Z,4.63
2022-08-25T04:14:10.337Z,4.50
2022-08-25T04:16:44.227Z,3.67
2022-08-25T04:19:11.604Z,3.80
2022-08-25T04:21:40.760Z,4.20
2022-08-25T04:24:11.034Z,6.00
2022-08-25T04:26:48.025Z,3.30
2022-08-25T04:29:19.133Z,3.97
2022-08-25T04:31:50.903Z,3.13
2022-08-25T04:34:29.809Z,4.28
2022-08-25T04:37:05.491Z,3.92
2022-08-25T04:39:35.245Z,4.90
2022-08-25T04:42:03.306Z,4.20
2022-08-25T04:44:31.989Z,4.00
2022-08-25T04:47:00.231Z,2.58
2022-08-25T04:49:28.757Z,4.13
2022-08-25T04:51:57.507Z,4.88
2022-08-25T04:54:24.749Z,7.32
2022-08-25T04:56:54.585Z,5.20
2022-08-25T04:59:30.114Z,3.65
2022-08-25T05:02:02.531Z,3.05
2022-08-25T05:04:30.293Z,3.25
2022-08-25T05:06:58.136Z,3.47
2022-08-25T05:09:26.399Z,3.80
2022-08-25T05:11:54.742Z,4.80
2022-08-25T05:14:26.264Z,4.25
2022-08-25T05:16:55.588Z,3.00
2022-08-25T05:19:24.332Z,3.50
2022-08-25T05:21:52.278Z,3.50
2022-08-25T05:24:20.444Z,3.85
2022-08-25T05:26:47.794Z,3.63
2022-08-25T05:29:15.697Z,6.05
2022-08-25T05:31:48.296Z,4.50
2022-08-25T05:34:19.057Z,4.55
2022-08-25T05:36:46.940Z,4.85
2022-08-25T05:39:14.673Z,4.45
2022-08-25T05:41:41.711Z,5.30
2022-08-25T05:44:08.866Z,6.20
2022-08-25T05:46:35.864Z,4.88
2022-08-25T05:49:02.909Z,7.95
2022-08-25T05:51:30.126Z,4.60
2022-08-25T05:53:57.215Z,4.57
2022-08-25T05:56:24.253Z,4.97
2022-08-25T05:58:51.386Z,4.15
2022-08-25T06:01:47.526Z,3.03
2022-08-25T06:04:17.977Z,4.18
2022-08-25T06:06:45.004Z,4.57
2022-08-25T06:09:12.843Z,5.47
2022-08-25T06:11:41.375Z,5.28
2022-08-25T06:14:10.051Z,5.57
2022-08-25T06:16:39.035Z,4.70
2022-08-25T06:19:08.397Z,3.80
2022-08-25T06:21:37.375Z,4.40
2022-08-25T06:24:05.067Z,5.97
2022-08-25T06:26:32.074Z,3.70
2022-08-25T06:28:59.089Z,7.10
2022-08-25T06:31:26.483Z,5.80
2022-08-25T06:33:53.655Z,4.20
2022-08-25T06:36:21.168Z,4.38
2022-08-25T06:38:48.660Z,3.70
2022-08-25T06:41:16.739Z,3.95
2022-08-25T06:43:49.064Z,5.50
2022-08-25T06:46:31.730Z,3.97
2022-08-25T06:49:06.791Z,7.15
2022-08-25T06:51:37.454Z,4.82
2022-08-25T06:54:07.533Z,4.80
2022-08-25T06:56:35.964Z,6.53
2022-08-25T06:59:05.700Z,6.10
2022-08-25T07:01:33.870Z,5.22
2022-08-25T07:04:07.569Z,5.93
2022-08-25T07:06:37.751Z,7.13
2022-08-25T07:09:07.489Z,4.75
2022-08-25T07:11:35.449Z,6.57
2022-08-25T07:14:05.670Z,5.82
2022-08-25T07:16:33.252Z,5.85
2022-08-25T07:19:01.921Z,8.68
2022-08-25T07:21:33.654Z,5.40
2022-08-25T07:24:07.933Z,5.17
2022-08-25T07:26:38.219Z,5.70
2022-08-25T07:29:32.882Z,5.97
2022-08-25T07:32:04.902Z,6.82
2022-08-25T07:34:52.482Z,6.47
2022-08-25T07:40:17.920Z,8.73
2022-08-25T07:42:45.520Z,6.40
2022-08-25T07:45:17.319Z,5.80
2022-08-25T07:47:48.521Z,7.15
2022-08-25T07:50:20.040Z,4.97
2022-08-25T07:52:53.918Z,6.50
2022-08-25T07:55:27.364Z,5.20
2022-08-25T07:57:57.284Z,5.53
2022-08-25T08:00:28.009Z,5.65
2022-08-25T08:02:55.502Z,8.05
2022-08-25T08:05:23.978Z,4.97
2022-08-25T08:07:53.169Z,6.43
2022-08-25T08:13:10.182Z,4.45
2022-08-25T08:15:37.984Z,4.78
2022-08-25T08:18:07.237Z,4.45
2022-08-25T08:20:42.489Z,5.10
2022-08-25T08:23:11.731Z,4.15
2022-08-25T08:25:38.784Z,3.75
2022-08-25T08:28:07.133Z,4.32
2022-08-25T08:30:36.618Z,4.10
2022-08-25T08:33:10.215Z,3.90
2022-08-25T08:35:43.060Z,4.30
2022-08-25T08:38:17.400Z,3.45
2022-08-25T08:41:23.010Z,3.63
2022-08-25T08:44:00.682Z,2.87
2022-08-25T08:46:53.798Z,3.63
2022-08-25T08:50:07.651Z,3.25
2022-08-25T08:53:06.743Z,4.05
2022-08-25T08:55:52.656Z,3.53
2022-08-25T08:58:49.802Z,3.55
2022-08-25T09:02:06.093Z,3.22
2022-08-25T09:04:58.266Z,3.13
2022-08-25T09:07:36.567Z,3.70
2022-08-25T09:10:10.307Z,2.88
2022-08-25T09:12:52.119Z,3.87
2022-08-25T09:16:34.446Z,3.80
2022-08-25T09:19:52.341Z,2.88
2022-08-25T09:22:43.762Z,4.03
2022-08-25T09:25:52.611Z,4.05
2022-08-25T09:28:43.091Z,3.55
2022-08-25T09:31:24.277Z,4.03
2022-08-25T09:34:00.009Z,4.30
2022-08-25T09:36:27.569Z,2.90
2022-08-25T09:38:54.625Z,3.10
2022-08-25T09:41:40.468Z,4.13
2022-08-25T09:44:26.263Z,3.03
2022-08-25T09:47:08.354Z,3.55
2022-08-25T09:49:46.632Z,3.75
2022-08-25T09:52:32.993Z,3.40
2022-08-25T09:55:34.413Z,4.05
2022-08-25T09:58:20.255Z,3.92
2022-08-25T10:01:22.572Z,4.05
2022-08-25T10:04:06.662Z,4.55
2022-08-25T10:06:47.293Z,2.90
2022-08-25T10:09:31.383Z,3.33
2022-08-25T10:12:01.500Z,3.50
2022-08-25T10:14:44.495Z,2.97
2022-08-25T10:17:24.847Z,2.90
2022-08-25T10:20:20.758Z,4.20
2022-08-25T10:22:51.153Z,4.30
2022-08-25T10:25:29.952Z,4.07
2022-08-25T10:28:15.529Z,3.28
2022-08-25T10:31:34.940Z,2.55
2022-08-25T10:34:22.018Z,2.93
2022-08-25T10:37:32.668Z,3.72
2022-08-25T10:40:19.410Z,3.70
2022-08-25T10:43:26.068Z,3.30
2022-08-25T10:46:36.930Z,5.22
2022-08-25T10:49:35.383Z,5.03
2022-08-25T10:52:36.715Z,3.22
2022-08-25T10:55:43.883Z,3.33
2022-08-25T10:58:24.180Z,3.42
2022-08-25T11:01:42.929Z,3.38
2022-08-25T11:04:26.211Z,2.65
2022-08-25T11:07:28.908Z,4.65
2022-08-25T11:10:03.073Z,3.15
2022-08-25T11:13:01.679Z,3.88
2022-08-25T11:16:13.706Z,2.63
2022-08-25T11:18:56.060Z,3.55
2022-08-25T11:21:51.543Z,2.72
2022-08-25T11:24:27.648Z,3.75
2022-08-25T11:26:57.172Z,4.25
2022-08-25T11:29:35.412Z,2.95
2022-08-25T11:32:04.889Z,3.75
2022-08-25T11:34:36.316Z,2.70
2022-08-25T11:37:25.824Z,2.58
2022-08-25T11:40:05.718Z,4.10
2022-08-25T11:43:11.679Z,3.17
2022-08-25T11:46:16.168Z,3.17
2022-08-25T11:49:21.707Z,3.07
2022-08-25T11:51:51.313Z,3.78
2022-08-25T11:54:42.972Z,3.35
2022-08-25T11:57:22.154Z,3.40
2022-08-25T11:59:57.672Z,2.85
2022-08-25T12:02:41.572Z,4.07
2022-08-25T12:05:18.971Z,2.15
2022-08-25T12:08:24.237Z,2.58
2022-08-25T12:11:10.602Z,3.17
2022-08-25T12:13:51.611Z,2.33
2022-08-25T12:16:41.993Z,2.40
2022-08-25T12:19:35.246Z,2.67
2022-08-25T12:22:03.565Z,3.30
2022-08-25T12:24:47.972Z,2.33
2022-08-25T12:27:39.757Z,2.35
2022-08-25T12:30:21.950Z,2.72
2022-08-25T12:33:22.447Z,3.03
2022-08-25T12:36:01.076Z,4.25
2022-08-25T12:38:43.598Z,3.72
2022-08-25T12:41:22.479Z,3.33
2022-08-25T12:44:08.925Z,3.83
2022-08-25T12:46:39.602Z,2.50
2022-08-25T12:49:34.810Z,3.15
2022-08-25T12:52:31.867Z,3.17
2022-08-25T12:55:06.099Z,2.50
2022-08-25T12:57:57.772Z,2.70
2022-08-25T13:00:36.432Z,5.15
2022-08-25T13:03:54.273Z,4.15
2022-08-25T13:07:02.909Z,5.05
2022-08-25T13:10:12.975Z,2.88
2022-08-25T13:12:57.952Z,2.95
2022-08-25T13:15:48.754Z,2.22
2022-08-25T13:18:35.001Z,2.67
2022-08-25T13:21:18.974Z,3.15
2022-08-25T13:23:53.973Z,3.90
2022-08-25T13:26:47.157Z,2.88
2022-08-25T13:29:22.861Z,4.83
2022-08-25T13:32:09.169Z,4.07
2022-08-25T13:34:42.537Z,3.50
2022-08-25T13:37:29.508Z,3.85
2022-08-25T13:40:26.775Z,3.47
2022-08-25T13:43:03.215Z,3.08
2022-08-25T13:45:41.536Z,4.38
2022-08-25T13:48:20.747Z,2.88
2022-08-25T13:50:54.177Z,3.13
2022-08-25T13:53:26.642Z,2.87
2022-08-25T13:56:03.407Z,3.63
2022-08-25T13:58:44.817Z,2.42
2022-08-25T14:01:48.110Z,2.60
2022-08-25T14:04:51.515Z,2.70
2022-08-25T14:07:22.810Z,2.33
2022-08-25T14:09:56.322Z,1.98
2022-08-25T14:12:36.265Z,2.55
2022-08-25T14:15:16.408Z,3.30
2022-08-25T14:18:01.068Z,3.00
2022-08-25T14:20:31.424Z,2.78
2022-08-25T14:23:16.137Z,2.37
2022-08-25T14:25:46.701Z,2.60
2022-08-25T14:28:18.927Z,3.33
2022-08-25T14:30:54.748Z,3.17
2022-08-25T14:33:28.090Z,4.63
2022-08-25T14:35:58.310Z,3.27
2022-08-25T14:38:25.983Z,4.50
2022-08-25T14:40:53.894Z,4.37
2022-08-25T14:43:23.689Z,4.67
2022-08-25T14:45:52.216Z,6.38
2022-08-25T14:48:45.616Z,5.53
2022-08-25T14:51:15.139Z,5.13
2022-08-25T14:53:44.113Z,6.45
2022-08-25T14:56:11.395Z,5.15
2022-08-25T14:58:51.225Z,3.90
2022-08-25T15:01:28.866Z,5.50
2022-08-25T15:04:23.350Z,5.80
2022-08-25T15:06:58.615Z,4.32
2022-08-25T15:09:26.675Z,4.03
2022-08-25T15:12:00.986Z,5.20
2022-08-25T15:14:28.828Z,2.63
2022-08-25T15:17:06.232Z,2.15
2022-08-25T15:19:36.597Z,4.10
2022-08-25T15:22:04.465Z,2.63
2022-08-25T15:24:37.379Z,2.77
2022-08-25T15:27:10.155Z,3.40
2022-08-25T15:29:37.755Z,3.27
2022-08-25T15:32:08.232Z,4.10
2022-08-25T15:34:36.964Z,2.70
2022-08-25T15:37:14.501Z,2.05
2022-08-25T15:39:44.594Z,3.10
2022-08-25T15:42:12.304Z,4.07
2022-08-25T15:44:40.136Z,3.47
2022-08-25T15:47:08.957Z,3.13
2022-08-25T15:49:40.124Z,3.22
2022-08-25T15:52:07.140Z,2.83
2022-08-25T15:54:34.200Z,2.80
2022-08-25T15:57:09.182Z,2.50
2022-08-25T15:59:40.274Z,3.80
2022-08-25T16:02:15.192Z,3.42
2022-08-25T16:04:42.738Z,3.92
2022-08-25T16:07:10.141Z,3.60
2022-08-25T16:09:41.736Z,4.43
2022-08-25T16:12:09.012Z,4.00
2022-08-25T16:14:38.604Z,4.88
2022-08-25T16:17:06.615Z,4.32
2022-08-25T16:19:33.696Z,4.47
2022-08-25T16:22:03.432Z,4.00
2022-08-25T16:24:34.530Z,5.00
2022-08-25T16:27:11.536Z,4.43
2022-08-25T16:29:43.939Z,4.27
2022-08-25T16:32:14.454Z,5.17
2022-08-25T16:34:44.327Z,5.63
2022-08-25T16:37:12.372Z,4.43
2022-08-25T16:39:44.128Z,4.43
2022-08-25T16:42:12.306Z,4.93
2022-08-25T16:44:39.964Z,5.63
2022-08-25T16:47:08.802Z,4.07
2022-08-25T16:49:36.520Z,5.22
2022-08-25T16:52:25.098Z,6.57
2022-08-25T16:55:15.081Z,5.03
2022-08-25T16:57:54.270Z,4.65
2022-08-25T17:00:28.300Z,4.63
2022-08-25T17:03:01.647Z,5.13
2022-08-25T17:05:29.716Z,4.88
2022-08-25T17:08:18.596Z,4.32
2022-08-25T17:10:46.727Z,5.53
2022-08-25T17:13:13.975Z,5.60
2022-08-25T17:15:45.323Z,4.85
2022-08-25T17:18:13.805Z,4.70
2022-08-25T17:20:44.745Z,6.40
2022-08-25T17:23:13.094Z,6.07
2022-08-25T17:25:43.135Z,5.18
2022-08-25T17:28:12.230Z,4.63
2022-08-25T17:30:40.758Z,4.90
2022-08-25T17:33:08.122Z,5.75
2022-08-25T17:35:48.599Z,4.75
2022-08-25T17:38:19.876Z,4.90
2022-08-25T17:40:48.184Z,4.85
2022-08-25T17:43:15.648Z,5.78
2022-08-25T17:45:42.754Z,6.22
2022-08-25T17:48:13.212Z,4.93
2022-08-25T17:50:41.419Z,4.70
2022-08-25T17:53:09.460Z,4.22
2022-08-25T17:55:38.077Z,4.70
2022-08-25T17:58:05.234Z,4.70
2022-08-25T18:00:32.919Z,4.57
2022-08-25T18:03:00.412Z,5.07
2022-08-25T18:05:27.973Z,4.47
2022-08-25T18:07:55.259Z,4.45
2022-08-25T18:10:22.896Z,5.35
2022-08-25T18:12:50.243Z,4.63
2022-08-25T18:15:18.059Z,4.43
2022-08-25T18:17:45.447Z,4.50
2022-08-25T18:20:14.468Z,4.50
2022-08-25T18:22:44.009Z,4.80
2022-08-25T18:25:14.676Z,5.03
2022-08-25T18:27:42.852Z,5.18
2022-08-25T18:30:11.049Z,4.97
2022-08-25T18:32:38.530Z,4.57
2022-08-25T18:35:07.316Z,4.70
2022-08-25T18:37:53.171Z,5.13
2022-08-25T18:40:23.530Z,5.32
2022-08-25T18:43:01.900Z,5.45
2022-08-25T18:45:40.617Z,4.95
2022-08-25T18:48:09.028Z,4.72
2022-08-25T18:50:39.498Z,5.07
2022-08-25T18:53:07.760Z,4.78
2022-08-25T18:55:36.387Z,5.10
2022-08-25T18:58:04.412Z,4.18
2022-08-25T19:00:32.628Z,5.32
2022-08-25T19:03:01.139Z,4.32
2022-08-25T19:05:33.394Z,4.82
2022-08-25T19:08:03.923Z,6.40
2022-08-25T19:10:32.420Z,5.07
2022-08-25T19:13:02.196Z,4.53
2022-08-25T19:15:37.655Z,4.70
2022-08-25T19:18:09.972Z,4.37
2022-08-25T19:20:37.972Z,4.50
2022-08-25T19:23:07.748Z,4.97
2022-08-25T19:25:41.394Z,4.05
2022-08-25T19:28:12.735Z,3.78
2022-08-25T19:30:49.754Z,3.92
2022-08-25T19:33:42.168Z,4.57
2022-08-25T19:36:08.818Z,5.88
2022-08-25T19:38:37.563Z,4.13
2022-08-25T19:41:13.983Z,4.25
2022-08-25T19:43:55.839Z,4.50
2022-08-25T19:46:32.281Z,5.60
2022-08-25T19:49:08.817Z,3.70
2022-08-25T19:51:39.827Z,4.30
2022-08-25T19:54:10.368Z,4.18
2022-08-25T19:56:43.918Z,4.82
2022-08-25T19:59:42.298Z,5.10
2022-08-25T20:02:15.948Z,5.88
2022-08-25T20:04:50.266Z,4.85
2022-08-25T20:07:21.734Z,4.35
2022-08-25T20:09:55.378Z,4.20
2022-08-25T20:12:25.142Z,4.45
2022-08-25T20:14:54.633Z,4.60
2022-08-25T20:17:26.173Z,4.07
2022-08-25T20:19:59.314Z,4.15
2022-08-25T20:22:31.543Z,5.57
2022-08-25T20:25:07.629Z,4.70
2022-08-25T20:27:50.779Z,5.13
2022-08-25T20:30:28.732Z,3.85
2022-08-25T20:32:58.096Z,4.78
2022-08-25T20:35:27.353Z,5.45
2022-08-25T20:37:56.836Z,5.65
2022-08-25T20:40:27.538Z,5.03
2022-08-25T20:42:57.007Z,7.32
2022-08-25T20:45:24.274Z,5.43
2022-08-25T20:47:51.657Z,4.28
2022-08-25T20:50:27.488Z,4.18
2022-08-25T20:52:56.894Z,4.20
2022-08-25T20:55:25.097Z,3.90
2022-08-25T20:57:53.746Z,4.27
2022-08-25T21:00:23.510Z,5.63
2022-08-25T21:02:52.945Z,4.88
2022-08-25T21:05:20.225Z,4.00
2022-08-25T21:07:47.384Z,3.58
2022-08-25T21:10:16.194Z,4.95
2022-08-25T21:12:45.069Z,4.60
2022-08-25T21:15:13.750Z,4.55
2022-08-25T21:17:49.642Z,3.88
2022-08-25T21:20:17.325Z,4.13
2022-08-25T21:22:44.361Z,3.75
2022-08-25T21:25:12.583Z,5.93
2022-08-25T21:27:39.832Z,5.28
2022-08-25T21:30:11.760Z,3.80
2022-08-25T21:32:38.757Z,4.78
2022-08-25T21:35:07.755Z,3.42
2022-08-25T21:37:35.092Z,4.28
2022-08-25T21:40:02.514Z,4.35
2022-08-25T21:42:34.418Z,4.03
2022-08-25T21:45:02.717Z,3.83
2022-08-25T21:47:29.836Z,4.07
2022-08-25T21:49:56.916Z,4.07
2022-08-25T21:52:23.979Z,4.05
2022-08-25T21:54:51.943Z,3.40
2022-08-25T21:57:23.722Z,2.85
2022-08-25T21:59:50.870Z,3.95
2022-08-25T22:02:22.578Z,3.20
2022-08-25T22:04:54.425Z,4.85
2022-08-25T22:07:24.475Z,4.13
2022-08-25T22:09:52.730Z,3.28
2022-08-25T22:12:19.824Z,3.97
2022-08-25T22:14:46.841Z,3.25
2022-08-25T22:17:14.108Z,4.37
2022-08-25T22:19:45.617Z,2.70
2022-08-25T22:22:13.847Z,4.82
2022-08-25T22:24:40.856Z,4.05
2022-08-25T22:27:12.088Z,3.20
2022-08-25T22:29:43.602Z,2.45
2022-08-25T22:32:13.727Z,2.28
2022-08-25T22:34:41.276Z,2.67
2022-08-25T22:37:10.787Z,2.45
2022-08-25T22:39:38.419Z,2.90
2022-08-25T22:42:07.544Z,2.08
2022-08-25T22:44:37.224Z,2.22
2022-08-25T22:47:04.577Z,3.03
2022-08-25T22:49:31.876Z,2.60
2022-08-25T22:51:58.849Z,2.08
2022-08-25T22:54:25.837Z,2.75
2022-08-25T22:56:53.060Z,3.07
2022-08-25T22:59:22.600Z,2.30
2022-08-25T23:01:52.448Z,2.10
2022-08-25T23:04:19.752Z,2.53
2022-08-25T23:06:47.733Z,2.90
2022-08-25T23:09:14.863Z,1.73
2022-08-25T23:11:43.077Z,2.40
2022-08-25T23:14:11.453Z,2.65
2022-08-25T23:16:43.482Z,1.73
2022-08-25T23:19:13.989Z,3.10
2022-08-25T23:22:03.426Z,2.25
2022-08-25T23:24:31.832Z,2.65
2022-08-25T23:27:04.370Z,2.25
2022-08-25T23:29:34.345Z,2.00
2022-08-25T23:32:02.850Z,2.78
2022-08-25T23:34:30.299Z,1.70
2022-08-25T23:36:57.722Z,2.15
2022-08-25T23:39:25.364Z,1.95
2022-08-25T23:41:52.970Z,2.58
2022-08-25T23:44:22.850Z,0.95
2022-08-25T23:46:53.435Z,2.13
2022-08-25T23:49:23.492Z,1.63
2022-08-25T23:51:52.754Z,1.65
2022-08-25T23:54:21.356Z,2.72
2022-08-25T23:56:51.599Z,1.67
2022-08-25T23:59:24.394Z,2.28
